Time;durP1;ratioP1;P1;durP2;ratioP2;P2;SDS_P1;SDS_P2;PMS_P1;PMS_P2;Temp;Humidity;BMP_temperature;BMP_pressure;BME280_temperature;BME280_humidity;BME280_pressure;Samples;Min_cycle;Max_cycle;Signal;HPM_P1;HPM_P2
2022/06/15 00:01:08;;;;;;;1.67;1.00;;;;;;;;;;5079647;28;20571;-60
2022/06/15 00:03:37;;;;;;;1.75;1.00;;;;;;;;;;5079024;28;20230;-60
2022/06/15 00:06:08;;;;;;;1.13;0.95;;;;;;;;;;5080047;28;20299;-59
2022/06/15 00:08:35;;;;;;;1.20;0.90;;;;;;;;;;5078694;28;20254;-60
2022/06/15 00:11:07;;;;;;;1.45;0.90;;;;;;;;;;5078898;28;20244;-59
2022/06/15 00:13:35;;;;;;;1.08;1.00;;;;;;;;;;5078925;28;20235;-59
2022/06/15 00:16:02;;;;;;;1.88;1.10;;;;;;;;;;5079057;28;20212;-59
2022/06/15 00:18:31;;;;;;;1.15;1.08;;;;;;;;;;5079009;28;20539;-60
2022/06/15 00:20:58;;;;;;;1.63;0.90;;;;;;;;;;5079602;28;20208;-60
2022/06/15 00:23:28;;;;;;;1.13;1.02;;;;;;;;;;5079155;28;20525;-60
2022/06/15 00:25:57;;;;;;;1.25;1.00;;;;;;;;;;5078522;28;20208;-60
2022/06/15 00:28:25;;;;;;;1.02;0.90;;;;;;;;;;5078504;28;20227;-60
2022/06/15 00:30:52;;;;;;;1.20;1.10;;;;;;;;;;5078909;28;20220;-60
2022/06/15 00:33:21;;;;;;;1.67;1.00;;;;;;;;;;5078651;28;20232;-60
2022/06/15 00:35:56;;;;;;;1.05;1.00;;;;;;;;;;5078215;28;20200;-61
2022/06/15 00:38:23;;;;;;;1.20;1.10;;;;;;;;;;5078883;28;20605;-60
2022/06/15 00:40:52;;;;;;;1.10;0.90;;;;;;;;;;5078866;28;20212;-60
2022/06/15 00:43:38;;;;;;;1.20;0.82;;;;;;;;;;5078731;28;20549;-60
2022/06/15 00:46:15;;;;;;;1.08;1.00;;;;;;;;;;5063024;28;20525;-60
2022/06/15 00:48:43;;;;;;;1.10;1.00;;;;;;;;;;5062839;28;20249;-60
2022/06/15 00:51:11;;;;;;;1.27;0.70;;;;;;;;;;5079089;28;20772;-60
2022/06/15 00:53:39;;;;;;;0.80;0.80;;;;;;;;;;5078686;28;20258;-60
2022/06/15 00:56:09;;;;;;;1.23;0.98;;;;;;;;;;5078747;28;20553;-60
2022/06/15 00:58:37;;;;;;;1.10;1.00;;;;;;;;;;5078267;28;20197;-60
2022/06/15 01:01:05;;;;;;;1.58;1.05;;;;;;;;;;5078474;28;20227;-60
2022/06/15 01:03:33;;;;;;;1.70;1.00;;;;;;;;;;5077609;28;20227;-61
2022/06/15 01:06:03;;;;;;;1.88;1.15;;;;;;;;;;5078786;28;20262;-61
2022/06/15 01:08:34;;;;;;;1.55;1.10;;;;;;;;;;5078935;28;20236;-61
2022/06/15 01:11:13;;;;;;;1.17;1.08;;;;;;;;;;5078216;28;20269;-61
2022/06/15 01:13:47;;;;;;;1.30;1.20;;;;;;;;;;5078648;28;20192;-61
2022/06/15 01:16:18;;;;;;;1.20;1.10;;;;;;;;;;5078086;28;20208;-61
2022/06/15 01:18:50;;;;;;;1.20;1.10;;;;;;;;;;5077892;28;20232;-62
2022/06/15 01:21:23;;;;;;;1.75;1.08;;;;;;;;;;5078569;28;20200;-62
2022/06/15 01:24:17;;;;;;;1.48;1.10;;;;;;;;;;5078120;28;20228;-61
2022/06/15 01:27:02;;;;;;;1.20;1.10;;;;;;;;;;5078228;28;20315;-61
2022/06/15 01:29:51;;;;;;;2.25;1.27;;;;;;;;;;5077903;28;20208;-61
2022/06/15 01:32:25;;;;;;;1.25;1.10;;;;;;;;;;5077913;28;20232;-61
2022/06/15 01:34:55;;;;;;;1.65;1.20;;;;;;;;;;5077852;28;20204;-61
2022/06/15 01:37:27;;;;;;;2.03;1.10;;;;;;;;;;5078114;28;20236;-61
2022/06/15 01:39:57;;;;;;;1.27;1.17;;;;;;;;;;5078350;28;20200;-61
2022/06/15 01:42:27;;;;;;;1.40;1.15;;;;;;;;;;5078141;28;20201;-61
2022/06/15 01:44:56;;;;;;;1.33;1.23;;;;;;;;;;5077939;28;20265;-61
2022/06/15 01:47:27;;;;;;;1.30;1.20;;;;;;;;;;5077353;28;20498;-61
2022/06/15 01:49:57;;;;;;;1.30;1.20;;;;;;;;;;5077380;28;20204;-61
2022/06/15 01:52:27;;;;;;;1.23;1.13;;;;;;;;;;5078121;28;20228;-62
2022/06/15 01:55:00;;;;;;;1.33;1.10;;;;;;;;;;5077700;28;20258;-61
2022/06/15 01:57:28;;;;;;;1.38;1.10;;;;;;;;;;5078267;28;20303;-61
2022/06/15 01:59:57;;;;;;;1.23;1.13;;;;;;;;;;5077585;28;20208;-61
2022/06/15 02:02:29;;;;;;;1.35;1.23;;;;;;;;;;5077101;28;20266;-61
2022/06/15 02:05:00;;;;;;;1.38;1.20;;;;;;;;;;5077004;28;20260;-61
2022/06/15 02:07:31;;;;;;;1.58;1.10;;;;;;;;;;5077788;28;20245;-61
2022/06/15 02:10:01;;;;;;;1.30;1.20;;;;;;;;;;5077345;28;20232;-61
2022/06/15 02:12:32;;;;;;;1.25;1.15;;;;;;;;;;5077620;28;20629;-61
2022/06/15 02:15:00;;;;;;;1.13;1.02;;;;;;;;;;5077243;28;20201;-61
2022/06/15 02:17:30;;;;;;;1.27;1.17;;;;;;;;;;5078010;28;20543;-61
2022/06/15 02:20:00;;;;;;;1.50;1.00;;;;;;;;;;5078173;28;20238;-61
2022/06/15 02:22:30;;;;;;;1.38;1.27;;;;;;;;;;5077542;28;20230;-61
2022/06/15 02:24:58;;;;;;;1.30;1.20;;;;;;;;;;5077817;28;20212;-62
2022/06/15 02:27:27;;;;;;;1.38;1.17;;;;;;;;;;5077886;28;20660;-61
2022/06/15 02:29:57;;;;;;;1.50;1.40;;;;;;;;;;5077838;28;20204;-61
2022/06/15 02:32:25;;;;;;;1.20;1.10;;;;;;;;;;5077524;28;20260;-61
2022/06/15 02:34:54;;;;;;;1.20;1.20;;;;;;;;;;5078028;28;20208;-61
2022/06/15 02:37:22;;;;;;;1.98;1.00;;;;;;;;;;5080452;28;20214;-61
2022/06/15 02:39:49;;;;;;;1.30;1.20;;;;;;;;;;5081626;28;20208;-61
2022/06/15 02:42:25;;;;;;;1.35;1.20;;;;;;;;;;5081712;28;20232;-61
2022/06/15 02:44:54;;;;;;;1.30;1.17;;;;;;;;;;5081117;28;20286;-61
2022/06/15 02:47:23;;;;;;;1.38;1.25;;;;;;;;;;5074658;28;20488;-61
2022/06/15 02:49:51;;;;;;;1.35;1.25;;;;;;;;;;5081286;28;20525;-61
2022/06/15 02:52:22;;;;;;;1.30;1.20;;;;;;;;;;5080582;28;20307;-61
2022/06/15 02:54:50;;;;;;;1.77;1.15;;;;;;;;;;5080048;28;20208;-61
2022/06/15 02:57:18;;;;;;;1.27;1.17;;;;;;;;;;5081713;28;20205;-61
2022/06/15 02:59:47;;;;;;;1.40;1.30;;;;;;;;;;5081175;28;20255;-61
2022/06/15 03:02:14;;;;;;;1.40;1.20;;;;;;;;;;5080944;28;20209;-61
2022/06/15 03:04:42;;;;;;;1.30;1.20;;;;;;;;;;5080442;28;20211;-61
2022/06/15 03:07:11;;;;;;;1.15;1.05;;;;;;;;;;5080264;28;20204;-61
2022/06/15 03:09:40;;;;;;;1.52;1.13;;;;;;;;;;5079809;28;20230;-61
2022/06/15 03:12:10;;;;;;;1.20;1.10;;;;;;;;;;5080761;28;20228;-61
2022/06/15 03:14:37;;;;;;;1.20;1.10;;;;;;;;;;5080774;28;20201;-61
2022/06/15 03:17:05;;;;;;;1.40;1.30;;;;;;;;;;5079977;28;20209;-61
2022/06/15 03:19:32;;;;;;;1.50;1.30;;;;;;;;;;5080047;28;20204;-61
2022/06/15 03:22:00;;;;;;;2.05;1.35;;;;;;;;;;5079985;28;20196;-62
2022/06/15 03:24:28;;;;;;;1.20;1.10;;;;;;;;;;5079934;28;20259;-61
2022/06/15 03:26:57;;;;;;;1.30;1.20;;;;;;;;;;5079592;28;20284;-61
2022/06/15 03:29:25;;;;;;;1.40;1.30;;;;;;;;;;5080242;28;20212;-61
2022/06/15 03:31:52;;;;;;;1.85;1.38;;;;;;;;;;5080687;28;20315;-61
2022/06/15 03:34:20;;;;;;;1.27;1.17;;;;;;;;;;5080564;28;20287;-61
2022/06/15 03:36:47;;;;;;;1.60;1.50;;;;;;;;;;5079925;28;20230;-61
2022/06/15 03:39:15;;;;;;;1.25;1.10;;;;;;;;;;5080354;28;20293;-61
2022/06/15 03:41:43;;;;;;;1.35;1.25;;;;;;;;;;5079946;28;20286;-62
2022/06/15 03:44:12;;;;;;;1.40;1.30;;;;;;;;;;5079649;28;20270;-61
2022/06/15 03:46:39;;;;;;;1.65;1.55;;;;;;;;;;5080289;28;20583;-62
2022/06/15 03:49:07;;;;;;;1.30;1.17;;;;;;;;;;5079443;28;20212;-61
2022/06/15 03:51:35;;;;;;;1.33;1.23;;;;;;;;;;5079404;28;20466;-61
2022/06/15 03:54:02;;;;;;;1.77;1.15;;;;;;;;;;5079862;28;20213;-61
2022/06/15 03:56:42;;;;;;;1.30;1.25;;;;;;;;;;5079864;28;20307;-61
2022/06/15 03:59:12;;;;;;;1.63;1.40;;;;;;;;;;5079532;28;20248;-61
2022/06/15 04:01:39;;;;;;;1.45;1.35;;;;;;;;;;5079365;28;20491;-61
2022/06/15 04:04:06;;;;;;;1.30;1.13;;;;;;;;;;5079085;28;20243;-61
2022/06/15 04:06:34;;;;;;;1.80;1.25;;;;;;;;;;5078540;28;20266;-61
2022/06/15 04:09:01;;;;;;;1.20;1.10;;;;;;;;;;5078913;28;20200;-61
2022/06/15 04:14:16;;;;;;;2.10;1.40;;;;;;;;;;5077969;28;20277;-61
2022/06/15 04:16:43;;;;;;;1.45;1.35;;;;;;;;;;5078312;28;20208;-61
2022/06/15 04:19:13;;;;;;;1.42;1.30;;;;;;;;;;5078736;28;20228;-61
2022/06/15 04:21:40;;;;;;;1.58;1.48;;;;;;;;;;5078262;28;20330;-61
2022/06/15 04:24:11;;;;;;;1.80;1.42;;;;;;;;;;5077748;28;20652;-61
2022/06/15 04:26:39;;;;;;;1.30;1.20;;;;;;;;;;5078968;28;20239;-61
2022/06/15 04:29:06;;;;;;;1.30;1.20;;;;;;;;;;5077896;28;20277;-61
2022/06/15 04:31:37;;;;;;;1.50;1.40;;;;;;;;;;5077661;28;20200;-61
2022/06/15 04:34:05;;;;;;;1.50;1.25;;;;;;;;;;5076716;28;20277;-61
2022/06/15 04:36:33;;;;;;;1.65;1.45;;;;;;;;;;5077690;28;20552;-61
2022/06/15 04:39:00;;;;;;;1.40;1.30;;;;;;;;;;5077755;28;20201;-61
2022/06/15 04:41:28;;;;;;;1.50;1.40;;;;;;;;;;5077712;28;20228;-61
2022/06/15 04:43:56;;;;;;;1.85;1.50;;;;;;;;;;5077100;28;20223;-61
2022/06/15 04:46:23;;;;;;;1.42;1.33;;;;;;;;;;5076870;28;20208;-61
2022/06/15 04:48:52;;;;;;;1.38;1.25;;;;;;;;;;5077425;28;20227;-61
2022/06/15 04:51:21;;;;;;;1.90;1.55;;;;;;;;;;5076844;28;20228;-61
2022/06/15 04:53:49;;;;;;;1.40;1.30;;;;;;;;;;5076072;28;20220;-61
2022/06/15 04:56:17;;;;;;;1.55;1.45;;;;;;;;;;5076285;28;20709;-61
2022/06/15 04:58:46;;;;;;;1.60;1.50;;;;;;;;;;5075873;28;20357;-61
2022/06/15 05:01:14;;;;;;;1.67;1.38;;;;;;;;;;5075879;28;20211;-61
2022/06/15 05:03:42;;;;;;;2.00;1.77;;;;;;;;;;5075075;28;20228;-61
2022/06/15 05:06:12;;;;;;;1.50;1.40;;;;;;;;;;5076568;28;20799;-61
2022/06/15 05:08:40;;;;;;;1.60;1.50;;;;;;;;;;5074966;28;20576;-61
2022/06/15 05:11:08;;;;;;;1.40;1.30;;;;;;;;;;5075159;28;20305;-61
2022/06/15 05:13:35;;;;;;;1.50;1.40;;;;;;;;;;5075530;28;20701;-61
2022/06/15 05:16:03;;;;;;;1.98;1.50;;;;;;;;;;5074771;28;20658;-62
2022/06/15 05:18:31;;;;;;;1.65;1.50;;;;;;;;;;5074992;28;20200;-61
2022/06/15 05:21:01;;;;;;;1.52;1.42;;;;;;;;;;5075072;28;20210;-61
2022/06/15 05:23:31;;;;;;;2.35;1.88;;;;;;;;;;5074333;28;20238;-61
2022/06/15 05:26:00;;;;;;;1.50;1.40;;;;;;;;;;5074531;28;20204;-61
2022/06/15 05:28:28;;;;;;;1.60;1.50;;;;;;;;;;5074822;28;20261;-59
2022/06/15 05:31:03;;;;;;;1.50;1.40;;;;;;;;;;5074883;28;20206;-61
2022/06/15 05:33:32;;;;;;;1.42;1.33;;;;;;;;;;5074892;28;20922;-61
2022/06/15 05:36:02;;;;;;;1.63;1.52;;;;;;;;;;5074784;28;20204;-61
2022/06/15 05:38:31;;;;;;;1.63;1.50;;;;;;;;;;5074505;28;20196;-60
2022/06/15 05:40:58;;;;;;;1.55;1.45;;;;;;;;;;5073643;28;20208;-61
2022/06/15 05:43:26;;;;;;;2.53;1.42;;;;;;;;;;5073549;28;20416;-61
2022/06/15 05:45:54;;;;;;;2.38;1.77;;;;;;;;;;5072860;28;20204;-61
2022/06/15 05:48:21;;;;;;;2.50;1.75;;;;;;;;;;5073570;28;20482;-60
2022/06/15 05:50:48;;;;;;;3.38;2.20;;;;;;;;;;5073286;28;20480;-60
2022/06/15 05:53:16;;;;;;;2.92;2.20;;;;;;;;;;5072772;28;20232;-61
2022/06/15 05:55:45;;;;;;;3.90;2.40;;;;;;;;;;5072716;28;20278;-60
2022/06/15 05:58:13;;;;;;;3.22;2.35;;;;;;;;;;5072511;28;20200;-60
2022/06/15 06:00:40;;;;;;;4.10;2.33;;;;;;;;;;5072378;28;20204;-60
2022/06/15 06:03:08;;;;;;;2.75;2.05;;;;;;;;;;5072687;28;20322;-60
2022/06/15 06:05:35;;;;;;;3.67;2.47;;;;;;;;;;5072882;28;20212;-60
2022/06/15 06:08:03;;;;;;;3.83;2.70;;;;;;;;;;5072852;28;20266;-60
2022/06/15 06:10:30;;;;;;;3.78;2.92;;;;;;;;;;5071680;28;20319;-60
2022/06/15 06:12:59;;;;;;;4.65;2.78;;;;;;;;;;5074436;28;20305;-60
2022/06/15 06:15:27;;;;;;;3.03;2.50;;;;;;;;;;5072865;28;20254;-60
2022/06/15 06:17:54;;;;;;;4.00;2.60;;;;;;;;;;5073593;28;20200;-60
2022/06/15 06:20:22;;;;;;;5.35;2.90;;;;;;;;;;5073691;28;20272;-61
2022/06/15 06:22:49;;;;;;;4.38;2.55;;;;;;;;;;5073428;28;20220;-60
2022/06/15 06:25:17;;;;;;;4.47;2.72;;;;;;;;;;5073423;28;20278;-61
2022/06/15 06:27:45;;;;;;;3.90;2.80;;;;;;;;;;5074182;28;20296;-60
2022/06/15 06:30:15;;;;;;;6.90;3.20;;;;;;;;;;5072919;28;20524;-60
2022/06/15 06:32:42;;;;;;;6.63;3.20;;;;;;;;;;5073509;28;20326;-60
2022/06/15 06:35:10;;;;;;;5.45;3.35;;;;;;;;;;5074259;28;20299;-60
2022/06/15 06:37:39;;;;;;;6.55;3.60;;;;;;;;;;5074873;28;20549;-60
2022/06/15 06:40:07;;;;;;;7.40;3.40;;;;;;;;;;5074323;28;20656;-61
2022/06/15 06:42:34;;;;;;;5.72;3.55;;;;;;;;;;5073745;28;20550;-60
2022/06/15 06:45:02;;;;;;;4.75;3.65;;;;;;;;;;5072317;28;20297;-60
2022/06/15 06:47:31;;;;;;;4.57;3.47;;;;;;;;;;5073803;28;20283;-61
2022/06/15 06:49:58;;;;;;;5.53;3.28;;;;;;;;;;5073181;28;20295;-60
2022/06/15 06:52:26;;;;;;;4.50;3.00;;;;;;;;;;5073485;28;20204;-61
2022/06/15 06:54:53;;;;;;;3.83;3.20;;;;;;;;;;5071369;28;20259;-61
2022/06/15 06:57:21;;;;;;;4.93;3.10;;;;;;;;;;5072565;28;20291;-61
2022/06/15 06:59:48;;;;;;;4.88;3.38;;;;;;;;;;5071419;28;20235;-60
2022/06/15 07:02:16;;;;;;;4.05;3.35;;;;;;;;;;5071886;28;20243;-61
2022/06/15 07:04:46;;;;;;;6.40;2.90;;;;;;;;;;5072726;28;20220;-61
2022/06/15 07:07:14;;;;;;;4.88;3.08;;;;;;;;;;5073410;28;20265;-61
2022/06/15 07:09:41;;;;;;;4.90;2.90;;;;;;;;;;5073397;28;20447;-61
2022/06/15 07:12:09;;;;;;;4.25;2.75;;;;;;;;;;5073295;28;20607;-61
2022/06/15 07:14:36;;;;;;;3.78;2.80;;;;;;;;;;5072567;28;20228;-60
2022/06/15 07:17:04;;;;;;;3.50;2.70;;;;;;;;;;5073009;28;20193;-60
2022/06/15 07:19:32;;;;;;;3.70;2.35;;;;;;;;;;5073227;28;20551;-61
2022/06/15 07:22:00;;;;;;;3.08;2.78;;;;;;;;;;5073833;28;20243;-60
2022/06/15 07:24:28;;;;;;;2.88;2.60;;;;;;;;;;5076166;28;20204;-60
2022/06/15 07:26:55;;;;;;;2.80;2.60;;;;;;;;;;5076833;28;20303;-61
2022/06/15 07:29:23;;;;;;;2.70;2.53;;;;;;;;;;5077015;28;20204;-60
2022/06/15 07:31:52;;;;;;;3.00;2.70;;;;;;;;;;5076105;28;20204;-60
2022/06/15 07:34:20;;;;;;;2.78;2.50;;;;;;;;;;5076268;28;20255;-60
2022/06/15 07:36:48;;;;;;;2.83;2.50;;;;;;;;;;5076173;28;20546;-60
2022/06/15 07:39:19;;;;;;;4.40;2.50;;;;;;;;;;5077175;28;20539;-60
2022/06/15 07:41:47;;;;;;;2.95;2.75;;;;;;;;;;5075548;28;20352;-61
2022/06/15 07:44:15;;;;;;;2.85;2.47;;;;;;;;;;5075428;28;20646;-60
2022/06/15 07:46:43;;;;;;;4.53;2.80;;;;;;;;;;5075460;28;20448;-61
2022/06/15 07:51:56;;;;;;;2.58;2.38;;;;;;;;;;5074383;28;20609;-60
2022/06/15 07:54:26;;;;;;;2.88;2.13;;;;;;;;;;5073930;28;20310;-60
2022/06/15 07:56:54;;;;;;;2.80;2.60;;;;;;;;;;5073790;28;20354;-60
2022/06/15 07:59:22;;;;;;;4.18;2.47;;;;;;;;;;5075062;28;20432;-61
2022/06/15 08:01:50;;;;;;;3.83;2.95;;;;;;;;;;5074093;28;20205;-61
2022/06/15 08:04:18;;;;;;;4.05;2.60;;;;;;;;;;5075486;28;20196;-60
2022/06/15 08:06:48;;;;;;;2.55;2.35;;;;;;;;;;5076174;28;20287;-60
2022/06/15 08:09:16;;;;;;;3.00;2.67;;;;;;;;;;5074949;28;20212;-61
2022/06/15 08:14:27;;;;;;;3.08;2.70;;;;;;;;;;5073926;28;20281;-60
2022/06/15 08:16:54;;;;;;;2.95;2.60;;;;;;;;;;5074932;28;20206;-61
2022/06/15 08:19:22;;;;;;;2.75;2.40;;;;;;;;;;5074252;28;20200;-61
2022/06/15 08:21:49;;;;;;;4.38;2.75;;;;;;;;;;5075905;28;20274;-60
2022/06/15 08:24:21;;;;;;;2.60;2.40;;;;;;;;;;5073781;28;20262;-60
2022/06/15 08:26:50;;;;;;;3.05;2.63;;;;;;;;;;5073610;28;20654;-60
2022/06/15 08:29:19;;;;;;;3.90;2.35;;;;;;;;;;5075366;28;20197;-60
2022/06/15 08:31:47;;;;;;;3.38;2.55;;;;;;;;;;5074863;28;20454;-61
2022/06/15 08:34:14;;;;;;;3.05;2.72;;;;;;;;;;5072953;28;20315;-60
2022/06/15 08:36:42;;;;;;;2.80;2.60;;;;;;;;;;5074335;28;20196;-60
2022/06/15 08:39:09;;;;;;;2.70;2.40;;;;;;;;;;5075185;28;20679;-61
2022/06/15 08:41:42;;;;;;;4.15;2.55;;;;;;;;;;5075481;28;20536;-60
2022/06/15 08:44:15;;;;;;;3.58;2.50;;;;;;;;;;5073602;28;20242;-60
2022/06/15 08:46:48;;;;;;;3.53;2.42;;;;;;;;;;5073680;28;20541;-60
2022/06/15 08:49:25;;;;;;;2.50;2.30;;;;;;;;;;5074207;28;20262;-61
2022/06/15 08:51:58;;;;;;;2.80;2.60;;;;;;;;;;5072923;28;20269;-61
2022/06/15 08:54:29;;;;;;;2.90;2.70;;;;;;;;;;5074360;28;20220;-60
2022/06/15 08:56:59;;;;;;;3.50;2.55;;;;;;;;;;5074404;28;20457;-61
2022/06/15 08:59:33;;;;;;;3.53;2.63;;;;;;;;;;5074348;28;20239;-61
2022/06/15 09:02:05;;;;;;;3.60;2.58;;;;;;;;;;5074724;28;20223;-61
2022/06/15 09:04:39;;;;;;;2.70;2.40;;;;;;;;;;5072194;28;20207;-60
2022/06/15 09:07:12;;;;;;;2.72;2.53;;;;;;;;;;5072520;28;20381;-60
2022/06/15 09:09:48;;;;;;;3.05;2.47;;;;;;;;;;5072764;28;20219;-60
2022/06/15 09:15:15;;;;;;;4.90;2.72;;;;;;;;;;5071937;28;20467;-60
2022/06/15 09:17:43;;;;;;;2.63;2.28;;;;;;;;;;5074942;28;20204;-61
2022/06/15 09:20:13;;;;;;;3.22;2.50;;;;;;;;;;5072665;28;20250;-60
2022/06/15 09:22:42;;;;;;;2.92;2.42;;;;;;;;;;5072925;28;20296;-60
2022/06/15 09:25:11;;;;;;;3.15;2.53;;;;;;;;;;5073536;28;20339;-61
2022/06/15 09:27:42;;;;;;;3.42;2.50;;;;;;;;;;5072708;28;20250;-61
2022/06/15 09:30:13;;;;;;;2.60;2.40;;;;;;;;;;5073559;28;20531;-60
2022/06/15 09:32:42;;;;;;;3.13;2.83;;;;;;;;;;5073861;28;20266;-60
2022/06/15 09:35:13;;;;;;;3.90;2.63;;;;;;;;;;5073200;28;20212;-61
2022/06/15 09:37:42;;;;;;;4.28;2.70;;;;;;;;;;5074365;28;20197;-61
2022/06/15 09:40:10;;;;;;;3.30;2.60;;;;;;;;;;5073451;28;20658;-60
2022/06/15 09:42:46;;;;;;;3.13;2.70;;;;;;;;;;5074464;28;20490;-61
2022/06/15 09:45:18;;;;;;;2.95;2.58;;;;;;;;;;5072364;28;20227;-60
2022/06/15 09:47:50;;;;;;;3.67;2.53;;;;;;;;;;5072731;28;20204;-61
2022/06/15 09:50:24;;;;;;;3.08;2.78;;;;;;;;;;5072848;28;20236;-60
2022/06/15 09:53:01;;;;;;;2.78;2.58;;;;;;;;;;5072228;28;20203;-60
2022/06/15 09:55:32;;;;;;;2.65;2.45;;;;;;;;;;5070940;28;20239;-60
2022/06/15 09:58:01;;;;;;;2.78;2.28;;;;;;;;;;5073343;28;20253;-60
2022/06/15 10:00:31;;;;;;;3.55;2.67;;;;;;;;;;5074472;28;20196;-60
2022/06/15 10:03:00;;;;;;;3.33;2.60;;;;;;;;;;5072314;28;20595;-60
2022/06/15 10:05:30;;;;;;;2.83;2.60;;;;;;;;;;5072650;28;20518;-60
2022/06/15 10:07:59;;;;;;;4.00;2.60;;;;;;;;;;5072379;28;20200;-60
2022/06/15 10:10:28;;;;;;;3.65;2.70;;;;;;;;;;5072355;28;20236;-60
2022/06/15 10:12:56;;;;;;;4.72;2.70;;;;;;;;;;5073027;28;20672;-60
2022/06/15 10:15:25;;;;;;;2.58;2.35;;;;;;;;;;5073016;28;20303;-60
2022/06/15 10:17:56;;;;;;;3.58;2.83;;;;;;;;;;5072412;28;20208;-60
2022/06/15 10:20:26;;;;;;;3.05;2.80;;;;;;;;;;5060495;28;20301;-60
2022/06/15 10:22:56;;;;;;;3.00;2.70;;;;;;;;;;5071913;28;20308;-60
2022/06/15 10:25:24;;;;;;;4.28;2.70;;;;;;;;;;5071632;28;20200;-60
2022/06/15 10:27:52;;;;;;;2.67;2.47;;;;;;;;;;5071937;28;20588;-60
2022/06/15 10:30:21;;;;;;;3.00;2.72;;;;;;;;;;5071562;28;20490;-60
2022/06/15 10:33:06;;;;;;;3.35;2.80;;;;;;;;;;5071697;28;20246;-60
2022/06/15 10:35:36;;;;;;;2.97;2.70;;;;;;;;;;5050722;28;20224;-60
2022/06/15 10:38:10;;;;;;;2.80;2.60;;;;;;;;;;5058102;28;20224;-60
2022/06/15 10:40:39;;;;;;;2.40;2.20;;;;;;;;;;5071545;28;20205;-60
2022/06/15 10:43:07;;;;;;;3.00;2.70;;;;;;;;;;5072345;28;20302;-60
2022/06/15 10:45:37;;;;;;;2.50;2.30;;;;;;;;;;5072099;28;20208;-60
2022/06/15 10:48:08;;;;;;;3.45;2.42;;;;;;;;;;5071759;28;20204;-60
2022/06/15 10:50:44;;;;;;;3.15;2.47;;;;;;;;;;5071268;28;20203;-60
2022/06/15 10:53:26;;;;;;;3.55;2.70;;;;;;;;;;5071667;28;20245;-60
2022/06/15 11:04:24;;;;;;;3.13;2.83;;;;;;;;;;5076168;28;20481;-60
2022/06/15 11:06:54;;;;;;;2.92;2.55;;;;;;;;;;5076498;28;20200;-60
2022/06/15 11:09:26;;;;;;;2.80;2.60;;;;;;;;;;5074832;28;20244;-60
2022/06/15 11:11:55;;;;;;;2.85;2.65;;;;;;;;;;5074720;28;20688;-60
2022/06/15 11:14:25;;;;;;;2.67;2.47;;;;;;;;;;5074107;28;20224;-61
2022/06/15 11:19:52;;;;;;;2.88;2.65;;;;;;;;;;5074712;28;20573;-60
2022/06/15 11:22:22;;;;;;;2.80;2.60;;;;;;;;;;5075154;28;20204;-60
2022/06/15 11:24:53;;;;;;;3.60;2.53;;;;;;;;;;5074533;28;20276;-60
2022/06/15 11:27:24;;;;;;;3.75;2.53;;;;;;;;;;5075220;28;20285;-59
2022/06/15 11:29:53;;;;;;;2.47;2.22;;;;;;;;;;5075288;28;20200;-60
2022/06/15 11:32:38;;;;;;;2.58;2.35;;;;;;;;;;5074888;28;20270;-60
2022/06/15 11:35:20;;;;;;;2.63;2.42;;;;;;;;;;5074017;28;20244;-60
2022/06/15 11:37:50;;;;;;;3.58;2.72;;;;;;;;;;5074390;28;20262;-60
2022/06/15 11:40:22;;;;;;;2.40;2.20;;;;;;;;;;5076140;28;20197;-59
2022/06/15 11:42:51;;;;;;;2.75;2.38;;;;;;;;;;5074467;28;20243;-59
2022/06/15 11:45:20;;;;;;;2.80;2.60;;;;;;;;;;5074426;28;20571;-59
2022/06/15 11:47:56;;;;;;;2.60;2.40;;;;;;;;;;5074429;28;20291;-60
2022/06/15 11:50:29;;;;;;;3.15;2.28;;;;;;;;;;5073111;28;20279;-60
2022/06/15 11:53:01;;;;;;;3.20;2.50;;;;;;;;;;5072792;28;20279;-59
2022/06/15 11:55:39;;;;;;;3.28;2.67;;;;;;;;;;5052374;28;20585;-60
2022/06/15 11:58:18;;;;;;;2.45;2.25;;;;;;;;;;5057151;28;20545;-60
2022/06/15 12:00:51;;;;;;;2.65;2.45;;;;;;;;;;5072722;28;20347;-60
2022/06/15 12:03:28;;;;;;;2.55;2.35;;;;;;;;;;5073366;28;20219;-60
2022/06/15 12:06:00;;;;;;;2.60;2.40;;;;;;;;;;5073866;28;20609;-60
2022/06/15 12:08:31;;;;;;;3.38;2.50;;;;;;;;;;5072330;28;20232;-60
2022/06/15 12:11:01;;;;;;;2.45;2.25;;;;;;;;;;5071659;28;20434;-60
2022/06/15 12:13:37;;;;;;;3.15;2.20;;;;;;;;;;5072059;28;20556;-60
2022/06/15 12:16:08;;;;;;;2.80;2.00;;;;;;;;;;5073954;28;20630;-60
2022/06/15 12:18:52;;;;;;;2.60;2.40;;;;;;;;;;5073164;28;20295;-60
2022/06/15 12:21:25;;;;;;;2.47;2.15;;;;;;;;;;5072056;28;20228;-60
2022/06/15 12:23:59;;;;;;;2.50;2.30;;;;;;;;;;5073323;28;20396;-60
2022/06/15 12:26:32;;;;;;;2.40;2.30;;;;;;;;;;5073903;28;20493;-60
2022/06/15 12:29:03;;;;;;;2.47;2.28;;;;;;;;;;5073109;28;20261;-60
2022/06/15 12:31:35;;;;;;;2.80;2.60;;;;;;;;;;5071691;28;20296;-60
2022/06/15 12:34:04;;;;;;;2.80;2.53;;;;;;;;;;5072082;28;20196;-60
2022/06/15 12:36:39;;;;;;;2.30;2.20;;;;;;;;;;5072010;28;20705;-60
2022/06/15 12:39:11;;;;;;;2.80;2.50;;;;;;;;;;5072288;28;20456;-60
2022/06/15 12:44:26;;;;;;;2.28;2.17;;;;;;;;;;5071685;28;20191;-59
2022/06/15 12:46:55;;;;;;;2.50;2.30;;;;;;;;;;5073647;28;20433;-60
2022/06/15 12:49:27;;;;;;;2.53;2.25;;;;;;;;;;5071752;28;20236;-60
2022/06/15 12:52:01;;;;;;;2.25;2.15;;;;;;;;;;5071679;28;20251;-60
2022/06/15 12:54:34;;;;;;;2.70;2.50;;;;;;;;;;5071622;28;20239;-60
2022/06/15 12:57:07;;;;;;;2.40;2.20;;;;;;;;;;5070663;28;20224;-60
2022/06/15 12:59:43;;;;;;;2.60;2.40;;;;;;;;;;5073243;28;20281;-60
2022/06/15 13:02:13;;;;;;;2.65;2.45;;;;;;;;;;5073096;28;20563;-60
2022/06/15 13:04:45;;;;;;;2.38;2.17;;;;;;;;;;5071843;28;20207;-60
2022/06/15 13:07:21;;;;;;;2.75;2.55;;;;;;;;;;5071933;28;20537;-60
2022/06/15 13:10:22;;;;;;;2.42;2.03;;;;;;;;;;5071674;28;20231;-60
2022/06/15 13:12:52;;;;;;;2.30;2.20;;;;;;;;;;4996709;28;20198;-60
2022/06/15 13:15:25;;;;;;;2.50;2.30;;;;;;;;;;4986789;28;20231;-61
2022/06/15 13:18:09;;;;;;;2.45;1.98;;;;;;;;;;5021248;28;20456;-61
2022/06/15 13:20:56;;;;;;;2.70;2.40;;;;;;;;;;5060075;28;20193;-60
2022/06/15 13:23:28;;;;;;;2.45;2.28;;;;;;;;;;5071968;28;20253;-60
2022/06/15 13:25:57;;;;;;;2.60;2.40;;;;;;;;;;5071570;28;20657;-61
2022/06/15 13:28:26;;;;;;;2.65;2.30;;;;;;;;;;5071769;28;20539;-60
2022/06/15 13:30:57;;;;;;;3.03;2.60;;;;;;;;;;5072010;28;20662;-60
2022/06/15 13:33:51;;;;;;;2.63;2.42;;;;;;;;;;5072859;28;20204;-60
2022/06/15 13:36:20;;;;;;;2.50;2.30;;;;;;;;;;5071964;28;20393;-61
2022/06/15 13:38:50;;;;;;;2.88;2.67;;;;;;;;;;5071351;28;20235;-60
2022/06/15 13:41:32;;;;;;;2.78;2.55;;;;;;;;;;5070881;28;20196;-60
2022/06/15 13:44:16;;;;;;;2.60;2.40;;;;;;;;;;5069276;28;20212;-60
2022/06/15 13:46:50;;;;;;;2.50;2.30;;;;;;;;;;5070530;28;20278;-62
2022/06/15 13:49:20;;;;;;;2.75;2.55;;;;;;;;;;5071596;28;20297;-62
2022/06/15 13:51:49;;;;;;;2.60;2.20;;;;;;;;;;5072044;28;20487;-62
2022/06/15 13:54:26;;;;;;;4.93;2.33;;;;;;;;;;5070874;28;20635;-62
2022/06/15 13:56:59;;;;;;;2.40;2.20;;;;;;;;;;5071837;28;20259;-62
2022/06/15 13:59:28;;;;;;;3.75;2.33;;;;;;;;;;5070865;28;20243;-62
2022/06/15 14:02:10;;;;;;;3.33;2.40;;;;;;;;;;5070954;28;20665;-62
2022/06/15 14:04:47;;;;;;;2.50;2.30;;;;;;;;;;5055220;28;20219;-62
2022/06/15 14:07:36;;;;;;;4.00;2.20;;;;;;;;;;5070854;28;20269;-62
2022/06/15 14:10:09;;;;;;;2.55;2.20;;;;;;;;;;5064562;28;20308;-62
2022/06/15 14:12:50;;;;;;;2.17;1.98;;;;;;;;;;5071181;28;20240;-62
2022/06/15 14:15:33;;;;;;;2.30;2.10;;;;;;;;;;5069918;28;20219;-59
2022/06/15 14:18:19;;;;;;;2.30;2.20;;;;;;;;;;5070933;28;20528;-62
2022/06/15 14:20:47;;;;;;;2.10;2.00;;;;;;;;;;5069757;28;20196;-62
2022/06/15 14:23:16;;;;;;;2.40;2.17;;;;;;;;;;5070200;28;20207;-62
2022/06/15 14:25:47;;;;;;;2.63;2.30;;;;;;;;;;5070348;28;20429;-62
2022/06/15 14:28:16;;;;;;;2.67;2.10;;;;;;;;;;5071360;28;20542;-62
2022/06/15 14:30:45;;;;;;;2.30;2.10;;;;;;;;;;5071928;28;20784;-62
2022/06/15 14:33:17;;;;;;;2.50;2.17;;;;;;;;;;5073572;28;20200;-62
2022/06/15 14:35:44;;;;;;;1.98;1.88;;;;;;;;;;5076903;28;20305;-62
2022/06/15 14:38:15;;;;;;;2.45;2.25;;;;;;;;;;5076398;28;20556;-62
2022/06/15 14:40:45;;;;;;;2.15;1.92;;;;;;;;;;5076514;28;20554;-62
2022/06/15 14:43:14;;;;;;;2.78;2.10;;;;;;;;;;5074916;28;20243;-62
2022/06/15 14:45:42;;;;;;;2.20;2.00;;;;;;;;;;5062932;28;20192;-62
2022/06/15 14:48:14;;;;;;;2.28;2.00;;;;;;;;;;5074792;28;20594;-62
2022/06/15 14:50:43;;;;;;;3.00;1.90;;;;;;;;;;5074886;28;20240;-62
2022/06/15 14:53:14;;;;;;;2.13;1.92;;;;;;;;;;5075319;28;20203;-62
2022/06/15 14:55:42;;;;;;;2.30;1.90;;;;;;;;;;5077768;28;20262;-62
2022/06/15 14:58:17;;;;;;;2.50;1.80;;;;;;;;;;5078101;28;20220;-62
2022/06/15 15:00:46;;;;;;;1.92;1.83;;;;;;;;;;5077184;28;20243;-62
2022/06/15 15:03:27;;;;;;;2.00;1.90;;;;;;;;;;5076805;28;20197;-62
2022/06/15 15:05:55;;;;;;;1.80;1.70;;;;;;;;;;5076923;28;20583;-61
2022/06/15 15:08:26;;;;;;;1.85;1.75;;;;;;;;;;5076918;28;20192;-62
2022/06/15 15:10:55;;;;;;;1.80;1.70;;;;;;;;;;5076719;28;20267;-62
2022/06/15 15:13:27;;;;;;;2.17;1.83;;;;;;;;;;5076243;28;20219;-62
2022/06/15 15:15:56;;;;;;;1.83;1.58;;;;;;;;;;5076837;28;20220;-62
2022/06/15 15:18:25;;;;;;;1.75;1.65;;;;;;;;;;5076332;28;20254;-62
2022/06/15 15:20:54;;;;;;;1.63;1.52;;;;;;;;;;5077471;28;20301;-62
2022/06/15 15:23:37;;;;;;;1.60;1.50;;;;;;;;;;5078288;28;20240;-62
2022/06/15 15:26:05;;;;;;;1.83;1.70;;;;;;;;;;5076928;28;20782;-62
2022/06/15 15:34:49;;;;;;;1.55;1.40;;;;;;;;;;5077047;28;20544;-62